Time;durP1;ratioP1;P1;durP2;ratioP2;P2;SDS_P1;SDS_P2;PMS_P1;PMS_P2;Temp;Humidity;BMP_temperature;BMP_pressure;BME280_temperature;BME280_humidity;BME280_pressure;Samples;Min_cycle;Max_cycle;Signal;HPM_P1;HPM_P2
2024/05/01 00:01:20;;;;;;;14.20;6.43;;;17.20;99.90;;;;;;5330623;26;20231;-63
2024/05/01 00:03:47;;;;;;;11.37;6.30;;;17.20;99.90;;;;;;5323647;26;20236;-64
2024/05/01 00:06:14;;;;;;;15.20;6.80;;;17.20;99.90;;;;;;5323692;26;20462;-64
2024/05/01 00:08:45;;;;;;;11.03;7.10;;;17.40;99.90;;;;;;5322302;26;20224;-64
2024/05/01 00:11:12;;;;;;;19.63;6.97;;;17.30;99.90;;;;;;5322924;26;20212;-64
2024/05/01 00:13:40;;;;;;;14.70;5.97;;;17.20;99.90;;;;;;5323785;26;20525;-64
2024/05/01 00:16:07;;;;;;;11.73;6.53;;;17.10;99.90;;;;;;5323194;26;20228;-63
2024/05/01 00:18:34;;;;;;;13.43;5.93;;;17.10;99.90;;;;;;5323721;26;20284;-64
2024/05/01 00:21:01;;;;;;;11.77;5.73;;;17.10;99.90;;;;;;5324221;26;20293;-64
2024/05/01 00:23:28;;;;;;;11.17;6.03;;;17.10;99.90;;;;;;5322929;26;20371;-64
2024/05/01 00:25:55;;;;;;;10.73;5.97;;;17.00;99.90;;;;;;5323847;26;20224;-64
2024/05/01 00:28:22;;;;;;;8.77;5.20;;;17.00;99.90;;;;;;5322903;26;20301;-65
2024/05/01 00:30:49;;;;;;;9.37;5.43;;;17.00;99.90;;;;;;5322615;27;20548;-64
2024/05/01 00:33:16;;;;;;;9.03;5.80;;;17.00;99.90;;;;;;5323765;26;20507;-64
2024/05/01 00:35:43;;;;;;;9.60;5.10;;;16.90;99.90;;;;;;5323486;26;20217;-64
2024/05/01 00:38:09;;;;;;;8.57;5.77;;;17.00;99.90;;;;;;5323039;26;20232;-63
2024/05/01 00:40:36;;;;;;;8.80;5.73;;;17.00;99.90;;;;;;5323119;26;20216;-64
2024/05/01 00:43:03;;;;;;;9.73;6.00;;;17.00;99.90;;;;;;5322738;26;20571;-64
2024/05/01 00:45:30;;;;;;;11.47;6.80;;;17.00;99.90;;;;;;5322429;27;20272;-64
2024/05/01 00:47:57;;;;;;;15.13;6.67;;;17.00;99.90;;;;;;5323418;26;20762;-65
2024/05/01 00:50:27;;;;;;;16.47;6.53;;;17.00;99.90;;;;;;5322618;27;20252;-65
2024/05/01 00:52:57;;;;;;;13.17;7.10;;;16.90;99.90;;;;;;5323323;26;20588;-64
2024/05/01 00:55:27;;;;;;;13.23;6.60;;;17.00;99.90;;;;;;5325253;26;20247;-64
2024/05/01 00:57:56;;;;;;;7.13;6.07;;;17.00;99.90;;;;;;5325771;26;20267;-64
2024/05/01 01:00:23;;;;;;;10.87;5.77;;;16.90;99.90;;;;;;5326564;26;20219;-64
2024/05/01 01:02:50;;;;;;;9.93;5.40;;;16.90;99.90;;;;;;5325249;26;20231;-63
2024/05/01 01:05:17;;;;;;;15.13;6.40;;;16.80;99.90;;;;;;5326325;26;20216;-63
2024/05/01 01:07:45;;;;;;;10.90;5.73;;;17.00;99.90;;;;;;5326482;26;20228;-64
2024/05/01 01:10:14;;;;;;;11.27;6.40;;;16.70;99.90;;;;;;5326498;26;20204;-64
2024/05/01 01:12:41;;;;;;;10.53;5.93;;;16.70;99.90;;;;;;5326634;26;20479;-64
2024/05/01 01:15:08;;;;;;;7.47;5.47;;;16.70;99.90;;;;;;5325232;27;20232;-64
2024/05/01 01:17:37;;;;;;;13.57;5.53;;;16.70;99.90;;;;;;5326579;26;20224;-63
2024/05/01 01:20:05;;;;;;;11.93;5.80;;;16.50;99.90;;;;;;5325568;26;20294;-65
2024/05/01 01:22:32;;;;;;;11.37;6.23;;;16.60;99.90;;;;;;5325275;26;20471;-66
2024/05/01 01:24:59;;;;;;;12.40;5.67;;;17.10;99.90;;;;;;5325355;26;20275;-64
2024/05/01 01:27:27;;;;;;;10.17;5.37;;;16.50;99.90;;;;;;5325770;26;20321;-65
2024/05/01 01:29:54;;;;;;;10.23;5.60;;;16.50;99.90;;;;;;5325935;26;20255;-64
2024/05/01 01:32:20;;;;;;;15.67;6.43;;;16.60;99.90;;;;;;5325598;26;20227;-65
2024/05/01 01:34:47;;;;;;;7.37;5.43;;;16.60;99.90;;;;;;5326147;26;20382;-65
2024/05/01 01:37:14;;;;;;;8.53;5.80;;;16.60;99.90;;;;;;5325949;26;20627;-64
2024/05/01 01:39:42;;;;;;;8.63;5.40;;;16.50;99.90;;;;;;5360107;26;20265;-64
2024/05/01 01:42:09;;;;;;;7.77;5.63;;;16.50;99.90;;;;;;5360169;26;20394;-64
2024/05/01 01:44:36;;;;;;;11.93;5.70;;;16.40;99.90;;;;;;5360265;26;20273;-64
2024/05/01 01:47:03;;;;;;;12.20;5.47;;;16.40;99.90;;;;;;5359984;26;20253;-63
2024/05/01 01:49:30;;;;;;;7.57;5.77;;;16.30;99.90;;;;;;5360383;26;20300;-65
2024/05/01 01:51:57;;;;;;;11.53;5.43;;;16.30;99.90;;;;;;5359443;26;20373;-64
2024/05/01 01:54:24;;;;;;;7.27;5.17;;;16.30;99.90;;;;;;5359995;26;20325;-64
2024/05/01 01:56:51;;;;;;;13.03;5.93;;;16.30;99.90;;;;;;5359349;26;20231;-64
2024/05/01 01:59:18;;;;;;;12.20;5.37;;;16.30;99.90;;;;;;5358826;26;20249;-64
2024/05/01 02:01:45;;;;;;;6.00;5.07;;;16.20;99.90;;;;;;5355305;26;20238;-63
2024/05/01 02:04:12;;;;;;;10.30;5.33;;;15.50;99.90;;;;;;5325503;26;20280;-65
2024/05/01 02:06:39;;;;;;;11.13;5.67;;;16.30;99.90;;;;;;5324518;26;20266;-64
2024/05/01 02:09:10;;;;;;;10.33;5.93;;;16.30;99.90;;;;;;5315291;26;20425;-64
2024/05/01 02:11:38;;;;;;;7.57;5.30;;;16.20;99.90;;;;;;5325601;26;20220;-64
2024/05/01 02:14:04;;;;;;;9.17;5.30;;;16.20;99.90;;;;;;5325192;26;20216;-64
2024/05/01 02:16:31;;;;;;;13.67;6.17;;;16.10;99.90;;;;;;5325376;26;20296;-64
2024/05/01 02:18:58;;;;;;;7.53;5.10;;;16.10;99.90;;;;;;5325831;26;20276;-65
2024/05/01 02:21:25;;;;;;;9.90;6.43;;;16.10;99.90;;;;;;5324604;27;20212;-64
2024/05/01 02:23:52;;;;;;;11.13;5.77;;;16.10;99.90;;;;;;5325669;26;20216;-64
2024/05/01 02:26:19;;;;;;;12.40;5.80;;;16.10;99.90;;;;;;5325248;26;20216;-65
2024/05/01 02:28:46;;;;;;;11.70;5.80;;;16.10;99.90;;;;;;5325708;26;20317;-63
2024/05/01 02:31:13;;;;;;;7.53;5.67;;;16.10;99.90;;;;;;5324411;27;20228;-64
2024/05/01 02:33:40;;;;;;;10.10;5.30;;;16.00;99.90;;;;;;5325656;26;20298;-64
2024/05/01 02:36:07;;;;;;;10.00;5.97;;;16.00;99.90;;;;;;5324367;27;20260;-64
2024/05/01 02:38:34;;;;;;;8.40;5.50;;;16.00;99.90;;;;;;5325736;26;20258;-67
2024/05/01 02:41:01;;;;;;;9.00;5.03;;;15.90;99.90;;;;;;5325127;26;20220;-65
2024/05/01 02:43:28;;;;;;;11.40;5.43;;;15.90;99.90;;;;;;5325004;26;20309;-64
2024/05/01 02:45:55;;;;;;;9.27;6.47;;;15.90;99.90;;;;;;5325215;26;20280;-64
2024/05/01 02:48:22;;;;;;;11.73;5.90;;;15.90;99.90;;;;;;5325065;26;20306;-63
2024/05/01 02:50:49;;;;;;;15.37;6.07;;;16.40;99.90;;;;;;5325315;26;20216;-63
2024/05/01 02:53:16;;;;;;;10.47;6.53;;;15.90;99.90;;;;;;5324868;26;20293;-64
2024/05/01 02:55:44;;;;;;;13.90;5.90;;;15.90;99.90;;;;;;5324437;27;20280;-64
2024/05/01 02:58:11;;;;;;;10.17;6.40;;;15.80;99.90;;;;;;5324938;26;20270;-63
2024/05/01 03:00:38;;;;;;;9.80;5.30;;;15.80;99.90;;;;;;5324232;27;20483;-64
2024/05/01 03:03:05;;;;;;;7.80;5.93;;;15.80;99.90;;;;;;5324661;26;20269;-64
2024/05/01 03:05:32;;;;;;;17.70;6.30;;;15.70;99.90;;;;;;5324729;26;20216;-64
2024/05/01 03:08:00;;;;;;;8.07;5.93;;;15.70;99.90;;;;;;5325056;26;20232;-64
2024/05/01 03:10:28;;;;;;;9.83;5.73;;;15.60;99.90;;;;;;5324647;26;20258;-64
2024/05/01 03:12:55;;;;;;;14.60;6.43;;;15.60;99.90;;;;;;5324992;26;20227;-64
2024/05/01 03:15:22;;;;;;;9.27;5.83;;;15.60;99.90;;;;;;5290327;27;20515;-64
2024/05/01 03:17:49;;;;;;;11.63;6.90;;;15.70;99.90;;;;;;5298760;26;20235;-66
2024/05/01 03:20:16;;;;;;;12.30;6.43;;;15.70;99.90;;;;;;5324573;26;20220;-63
2024/05/01 03:22:43;;;;;;;8.90;6.50;;;15.60;99.90;;;;;;5324703;26;20297;-65
2024/05/01 03:25:10;;;;;;;9.87;6.50;;;15.60;99.90;;;;;;5323654;26;20236;-64
2024/05/01 03:27:37;;;;;;;9.97;6.20;;;15.50;99.90;;;;;;5323949;26;20216;-64
2024/05/01 03:30:04;;;;;;;9.23;5.80;;;15.60;99.90;;;;;;5324060;26;20252;-64
2024/05/01 03:32:31;;;;;;;17.70;6.90;;;15.50;99.90;;;;;;5328139;26;20305;-65
2024/05/01 03:34:58;;;;;;;17.47;5.90;;;15.40;99.90;;;;;;5357865;26;20265;-64
2024/05/01 03:37:25;;;;;;;7.33;5.60;;;15.50;99.90;;;;;;5358413;26;20295;-64
2024/05/01 03:39:52;;;;;;;10.03;6.17;;;15.50;99.90;;;;;;5358722;26;20271;-65
2024/05/01 03:42:19;;;;;;;11.03;5.70;;;15.50;99.90;;;;;;5358225;26;20309;-64
2024/05/01 03:44:46;;;;;;;9.10;5.57;;;15.40;99.90;;;;;;5358542;26;20521;-64
2024/05/01 03:47:13;;;;;;;8.30;5.57;;;15.40;99.90;;;;;;5358726;26;20223;-64
2024/05/01 03:49:42;;;;;;;14.27;6.60;;;15.40;99.90;;;;;;5358233;26;20305;-63
2024/05/01 03:52:09;;;;;;;6.93;5.33;;;15.30;99.90;;;;;;5358683;26;20316;-64
2024/05/01 03:54:38;;;;;;;12.33;5.77;;;15.40;99.90;;;;;;5358340;26;20257;-64
2024/05/01 03:57:05;;;;;;;11.13;6.53;;;15.40;99.90;;;;;;5357864;26;20215;-64
2024/05/01 03:59:32;;;;;;;9.07;6.30;;;15.30;99.90;;;;;;5358046;26;20270;-63
2024/05/01 04:01:59;;;;;;;12.90;6.70;;;15.40;99.90;;;;;;5357848;26;20226;-63
2024/05/01 04:04:27;;;;;;;16.20;6.87;;;15.30;99.90;;;;;;5326274;26;20211;-66
2024/05/01 04:06:54;;;;;;;11.47;7.00;;;15.40;99.90;;;;;;5324228;26;20236;-65
2024/05/01 04:09:22;;;;;;;12.10;7.10;;;15.20;99.90;;;;;;5324054;26;20374;-64
2024/05/01 04:11:49;;;;;;;14.03;6.57;;;15.20;99.90;;;;;;5324143;26;20289;-64
2024/05/01 04:14:17;;;;;;;13.70;6.47;;;15.10;99.90;;;;;;5323907;26;20224;-64
2024/05/01 04:16:44;;;;;;;10.37;6.30;;;15.20;99.90;;;;;;5324042;26;20299;-65
2024/05/01 04:19:11;;;;;;;11.73;6.20;;;15.20;99.90;;;;;;5323714;26;20352;-63
2024/05/01 04:21:38;;;;;;;10.33;6.93;;;15.20;99.90;;;;;;5323924;26;20212;-64
2024/05/01 04:24:06;;;;;;;9.53;6.97;;;15.20;99.90;;;;;;5323993;26;20506;-64
2024/05/01 04:26:32;;;;;;;8.00;6.50;;;15.20;99.90;;;;;;5323589;26;20251;-65
2024/05/01 04:28:59;;;;;;;14.07;6.67;;;15.30;99.90;;;;;;5325505;26;20247;-63
2024/05/01 04:31:27;;;;;;;9.03;5.53;;;15.10;99.90;;;;;;5326690;26;20216;-64
2024/05/01 04:33:53;;;;;;;10.77;6.20;;;15.10;99.90;;;;;;5326484;26;20220;-65
2024/05/01 04:36:21;;;;;;;7.57;6.13;;;15.20;99.90;;;;;;5325841;27;20250;-64
2024/05/01 04:38:48;;;;;;;12.20;6.70;;;15.10;99.90;;;;;;5327170;26;20254;-64
2024/05/01 04:41:14;;;;;;;10.50;6.87;;;15.10;99.90;;;;;;5326494;26;20272;-64
2024/05/01 04:43:46;;;;;;;8.93;5.80;;;15.10;99.90;;;;;;5326700;26;20398;-65
2024/05/01 04:46:13;;;;;;;16.03;6.53;;;15.10;99.90;;;;;;5326747;26;20216;-64
2024/05/01 04:48:40;;;;;;;11.17;6.47;;;15.10;99.90;;;;;;5326082;26;20286;-65
2024/05/01 04:51:10;;;;;;;10.80;6.43;;;15.10;99.90;;;;;;5326619;26;20301;-65
2024/05/01 04:53:36;;;;;;;10.13;6.17;;;15.10;99.90;;;;;;5326746;26;20235;-65
2024/05/01 04:56:07;;;;;;;11.97;6.67;;;15.00;99.90;;;;;;5291679;27;20261;-63
2024/05/01 04:58:34;;;;;;;10.67;6.27;;;15.00;99.90;;;;;;5302330;26;20219;-64
2024/05/01 05:01:01;;;;;;;10.63;5.90;;;14.90;99.90;;;;;;5326856;26;20479;-65
2024/05/01 05:03:28;;;;;;;14.30;6.30;;;15.00;99.90;;;;;;5326034;26;20329;-63
2024/05/01 05:05:55;;;;;;;8.93;5.57;;;15.00;99.90;;;;;;5326643;26;20223;-64
2024/05/01 05:08:22;;;;;;;9.60;6.63;;;15.10;99.90;;;;;;5325666;26;20270;-63
2024/05/01 05:10:49;;;;;;;11.10;6.40;;;15.10;99.90;;;;;;5326614;26;20553;-65
2024/05/01 05:13:15;;;;;;;8.43;6.17;;;15.10;99.90;;;;;;5326514;26;20483;-64
2024/05/01 05:15:42;;;;;;;9.00;6.27;;;15.20;99.90;;;;;;5325587;26;20236;-65
2024/05/01 05:18:09;;;;;;;11.93;6.00;;;15.20;99.90;;;;;;5325694;26;20208;-65
2024/05/01 05:20:37;;;;;;;10.70;6.63;;;15.20;99.90;;;;;;5326138;26;20224;-64
2024/05/01 05:23:04;;;;;;;14.37;6.10;;;15.20;99.90;;;;;;5326333;26;20212;-65
2024/05/01 05:25:31;;;;;;;7.90;5.90;;;15.20;99.90;;;;;;5326102;26;20244;-64
2024/05/01 05:27:57;;;;;;;9.60;6.40;;;15.20;99.90;;;;;;5325357;27;20446;-64
2024/05/01 05:30:25;;;;;;;9.87;6.40;;;15.20;99.90;;;;;;5326122;26;20510;-65
2024/05/01 05:32:52;;;;;;;12.33;6.20;;;15.30;99.90;;;;;;5326359;26;20212;-65
2024/05/01 05:35:18;;;;;;;8.97;6.40;;;15.30;99.90;;;;;;5326344;26;20228;-64
2024/05/01 05:37:45;;;;;;;10.97;6.80;;;15.30;99.90;;;;;;5325912;26;20347;-64
2024/05/01 05:40:12;;;;;;;8.47;6.43;;;15.40;99.90;;;;;;5325260;26;20232;-64
2024/05/01 05:42:40;;;;;;;10.93;6.00;;;15.50;99.90;;;;;;5324887;26;20224;-64
2024/05/01 05:45:08;;;;;;;8.87;6.43;;;15.50;99.90;;;;;;5325155;26;20296;-63
2024/05/01 05:47:35;;;;;;;11.97;6.17;;;15.50;99.90;;;;;;5324545;27;20208;-64
2024/05/01 05:50:03;;;;;;;11.43;6.50;;;15.60;99.90;;;;;;5326338;26;20236;-67
2024/05/01 05:52:30;;;;;;;9.47;6.40;;;15.60;99.90;;;;;;5325676;26;20232;-64
2024/05/01 05:54:57;;;;;;;12.53;7.37;;;15.80;99.90;;;;;;5325387;26;20510;-64
2024/05/01 05:57:24;;;;;;;7.73;6.63;;;15.80;99.90;;;;;;5325814;26;20537;-64
2024/05/01 05:59:51;;;;;;;8.23;6.53;;;15.90;99.90;;;;;;5325825;26;20310;-64
2024/05/01 06:02:18;;;;;;;12.83;6.63;;;15.90;99.90;;;;;;5325684;26;20258;-63
2024/05/01 06:04:45;;;;;;;16.10;7.23;;;15.90;99.90;;;;;;5328921;26;20406;-64
2024/05/01 06:07:12;;;;;;;9.90;6.73;;;16.00;99.90;;;;;;5325619;26;20231;-64
2024/05/01 06:09:39;;;;;;;12.63;7.23;;;15.90;99.90;;;;;;5325676;26;20289;-63
2024/05/01 06:12:06;;;;;;;13.37;7.73;;;16.00;99.90;;;;;;5324929;27;20216;-66
2024/05/01 06:14:33;;;;;;;9.70;7.37;;;16.10;99.90;;;;;;5324749;26;20271;-64
2024/05/01 06:17:00;;;;;;;12.03;7.23;;;16.20;99.90;;;;;;5325461;26;20216;-66
2024/05/01 06:19:27;;;;;;;15.40;8.17;;;16.20;99.90;;;;;;5324912;26;20259;-63
2024/05/01 06:21:54;;;;;;;15.03;7.50;;;16.30;99.90;;;;;;5325429;26;20263;-65
2024/05/01 06:24:21;;;;;;;15.93;7.23;;;16.40;99.90;;;;;;5325758;26;20280;-64
2024/05/01 06:26:48;;;;;;;12.43;7.37;;;16.40;99.90;;;;;;5325324;26;20212;-64
2024/05/01 06:29:14;;;;;;;15.10;6.33;;;16.50;99.90;;;;;;5296234;26;20228;-63
2024/05/01 06:31:41;;;;;;;13.00;6.20;;;16.60;99.90;;;;;;5359820;26;20545;-64
2024/05/01 06:34:08;;;;;;;15.90;7.40;;;16.70;99.90;;;;;;5359535;26;20258;-62
2024/05/01 06:36:39;;;;;;;17.67;6.60;;;16.80;99.90;;;;;;5358664;26;20393;-65
2024/05/01 06:39:06;;;;;;;17.30;6.90;;;16.90;99.90;;;;;;5359258;26;20282;-64
2024/05/01 06:41:33;;;;;;;13.17;7.27;;;17.00;99.90;;;;;;5359363;26;20317;-65
2024/05/01 06:44:00;;;;;;;14.87;7.23;;;17.10;99.90;;;;;;5359074;26;20223;-63
2024/05/01 06:46:27;;;;;;;12.43;6.53;;;17.20;99.90;;;;;;5358520;26;20235;-64
2024/05/01 06:48:54;;;;;;;9.07;6.20;;;17.30;99.90;;;;;;5359236;26;20508;-66
2024/05/01 06:51:21;;;;;;;11.80;6.83;;;17.40;99.90;;;;;;5358742;26;20274;-65
2024/05/01 06:53:48;;;;;;;10.30;6.60;;;17.80;99.90;;;;;;5357584;26;20356;-66
2024/05/01 06:56:15;;;;;;;8.70;6.20;;;17.70;99.90;;;;;;5358415;26;20278;-64
2024/05/01 06:58:42;;;;;;;24.63;7.07;;;17.80;99.90;;;;;;5359199;26;20287;-65
2024/05/01 07:01:09;;;;;;;17.27;6.10;;;18.00;99.90;;;;;;5351264;26;20528;-64
2024/05/01 07:03:36;;;;;;;10.80;6.10;;;18.10;99.90;;;;;;5336246;26;20235;-64
2024/05/01 07:06:03;;;;;;;11.30;5.77;;;18.20;99.90;;;;;;5358150;26;20509;-64
2024/05/01 07:08:30;;;;;;;12.17;6.17;;;18.40;99.90;;;;;;5325239;26;20301;-65
2024/05/01 07:10:57;;;;;;;14.63;6.83;;;18.60;99.90;;;;;;5324551;26;20224;-64
2024/05/01 07:13:24;;;;;;;13.80;6.57;;;18.80;99.90;;;;;;5324760;26;20216;-64
2024/05/01 07:15:51;;;;;;;13.40;6.27;;;19.00;99.90;;;;;;5324107;26;20227;-65
2024/05/01 07:18:18;;;;;;;13.53;6.40;;;19.30;99.90;;;;;;5324332;26;20774;-66
2024/05/01 07:20:45;;;;;;;10.20;5.40;;;19.40;99.90;;;;;;5324917;26;20220;-67
2024/05/01 07:23:17;;;;;;;13.37;6.87;;;19.60;99.90;;;;;;5324311;26;20316;-65
2024/05/01 07:25:44;;;;;;;9.57;5.27;;;19.70;99.90;;;;;;5325001;26;20295;-65
2024/05/01 07:28:11;;;;;;;11.90;5.93;;;19.90;99.90;;;;;;5323574;27;20228;-64
2024/05/01 07:30:37;;;;;;;11.17;5.17;;;19.90;99.90;;;;;;5324716;26;20344;-64
2024/05/01 07:33:14;;;;;;;12.53;5.73;;;20.00;99.90;;;;;;5323366;27;20466;-63
2024/05/01 07:35:42;;;;;;;11.57;5.37;;;20.00;99.90;;;;;;5324796;26;20313;-65
2024/05/01 07:38:10;;;;;;;13.03;6.03;;;20.20;99.90;;;;;;5324247;26;20220;-65
2024/05/01 07:40:38;;;;;;;12.60;5.47;;;20.20;99.90;;;;;;5324522;26;20220;-64
2024/05/01 07:43:11;;;;;;;9.87;5.33;;;20.30;99.90;;;;;;5323176;27;20519;-67
2024/05/01 07:45:41;;;;;;;11.27;5.73;;;20.30;99.90;;;;;;5324437;26;20216;-64
2024/05/01 07:48:09;;;;;;;11.03;6.13;;;20.30;99.90;;;;;;5324078;26;20216;-65
2024/05/01 07:50:36;;;;;;;10.17;5.50;;;20.40;99.90;;;;;;5324496;26;20219;-65
2024/05/01 07:53:03;;;;;;;18.27;5.77;;;20.40;99.90;;;;;;5324266;26;20217;-65
2024/05/01 07:55:31;;;;;;;10.97;5.10;;;20.40;99.90;;;;;;5323410;26;20216;-64
2024/05/01 07:57:58;;;;;;;12.27;5.20;;;20.40;99.90;;;;;;5323404;27;20254;-64
2024/05/01 08:00:25;;;;;;;19.40;5.40;;;20.60;99.90;;;;;;5323204;26;20220;-65
2024/05/01 08:02:52;;;;;;;15.47;5.73;;;20.50;99.90;;;;;;5286383;26;1012251;-65
2024/05/01 08:05:19;;;;;;;21.40;5.60;;;20.50;99.90;;;;;;5323895;26;20298;-65
2024/05/01 08:07:47;;;;;;;12.80;5.47;;;20.50;99.90;;;;;;5323320;27;20295;-64
2024/05/01 08:10:15;;;;;;;19.23;5.70;;;20.70;99.90;;;;;;5323255;26;20258;-65
2024/05/01 08:12:42;;;;;;;13.70;5.90;;;20.60;99.90;;;;;;5323952;26;20219;-64
2024/05/01 08:15:09;;;;;;;15.37;6.47;;;20.70;99.90;;;;;;5323269;26;20216;-66
2024/05/01 08:17:36;;;;;;;16.90;5.63;;;20.70;99.90;;;;;;5322874;27;20228;-66
2024/05/01 08:20:04;;;;;;;20.57;5.97;;;20.80;99.90;;;;;;5330086;26;20216;-65
2024/05/01 08:22:31;;;;;;;15.50;6.37;;;20.80;99.90;;;;;;5323750;26;20228;-65
2024/05/01 08:24:59;;;;;;;17.20;6.20;;;20.90;99.90;;;;;;5323709;26;20220;-66
2024/05/01 08:27:26;;;;;;;11.70;5.73;;;20.90;99.90;;;;;;5323442;26;20220;-65
2024/05/01 08:29:56;;;;;;;12.47;5.33;;;21.00;99.90;;;;;;5322986;26;20223;-65
2024/05/01 08:32:23;;;;;;;13.73;5.47;;;21.00;99.90;;;;;;5322743;26;20260;-65
2024/05/01 08:34:50;;;;;;;16.00;5.27;;;21.10;99.90;;;;;;5323646;26;20258;-66
2024/05/01 08:37:18;;;;;;;15.33;4.60;;;21.10;99.90;;;;;;5323521;26;20266;-67
2024/05/01 08:39:45;;;;;;;13.23;5.13;;;21.20;99.90;;;;;;5323853;26;20220;-66
2024/05/01 08:42:15;;;;;;;12.90;4.87;;;21.20;99.90;;;;;;5322934;26;20302;-66
2024/05/01 08:44:44;;;;;;;14.67;6.30;;;21.20;99.90;;;;;;5323110;26;20333;-67
2024/05/01 08:47:18;;;;;;;24.37;6.83;;;21.30;99.90;;;;;;5323610;26;20232;-65
2024/05/01 08:49:46;;;;;;;12.70;6.23;;;21.30;99.90;;;;;;5323243;26;20223;-65
2024/05/01 08:52:16;;;;;;;19.00;5.70;;;21.30;99.90;;;;;;5323522;26;20305;-65
2024/05/01 08:54:44;;;;;;;18.83;5.40;;;21.40;99.90;;;;;;5322223;26;20478;-66
2024/05/01 08:57:13;;;;;;;11.70;5.63;;;21.30;99.90;;;;;;5322531;26;20220;-66
2024/05/01 08:59:42;;;;;;;17.57;5.33;;;21.30;99.90;;;;;;5323070;26;20244;-66
2024/05/01 09:02:18;;;;;;;19.67;5.77;;;21.30;99.90;;;;;;5323004;26;20437;-67
2024/05/01 09:04:45;;;;;;;14.37;5.50;;;21.40;99.90;;;;;;5322163;26;20302;-66
2024/05/01 09:07:13;;;;;;;14.23;5.83;;;21.40;99.90;;;;;;5323088;26;20303;-66
2024/05/01 09:09:42;;;;;;;15.70;5.00;;;21.40;99.90;;;;;;5322886;26;20243;-65
2024/05/01 09:12:09;;;;;;;15.23;5.10;;;21.40;99.90;;;;;;5323114;26;20522;-65
2024/05/01 09:14:36;;;;;;;17.30;5.93;;;21.50;99.90;;;;;;5322700;26;20220;-66
2024/05/01 09:17:04;;;;;;;12.03;5.13;;;21.50;99.90;;;;;;5325982;26;20388;-66
2024/05/01 09:19:38;;;;;;;17.50;5.43;;;21.60;99.90;;;;;;5326322;26;20272;-65
2024/05/01 09:22:18;;;;;;;17.97;5.30;;;21.60;99.90;;;;;;5326398;26;20235;-65
2024/05/01 09:24:46;;;;;;;21.27;5.87;;;21.60;99.90;;;;;;5326217;26;20252;-64
2024/05/01 09:27:14;;;;;;;20.50;5.57;;;21.70;99.90;;;;;;5326189;26;20262;-65
2024/05/01 09:29:41;;;;;;;17.17;5.83;;;21.80;99.90;;;;;;5325998;26;20224;-65
2024/05/01 09:32:08;;;;;;;25.70;5.33;;;21.80;99.90;;;;;;5326260;26;20259;-64
2024/05/01 09:34:35;;;;;;;20.43;5.73;;;21.80;99.90;;;;;;5325445;27;20259;-66
2024/05/01 09:37:04;;;;;;;27.70;5.70;;;21.90;99.90;;;;;;5326329;26;20268;-66
2024/05/01 09:39:43;;;;;;;22.10;4.97;;;21.90;99.90;;;;;;5326095;26;20247;-66
2024/05/01 09:42:11;;;;;;;19.17;5.20;;;22.00;99.90;;;;;;5314565;26;20220;-66
2024/05/01 09:44:48;;;;;;;22.53;5.30;;;21.90;99.80;;;;;;5325246;26;20220;-66
2024/05/01 09:47:16;;;;;;;16.90;4.63;;;22.10;99.50;;;;;;5318956;26;20237;-65
2024/05/01 09:49:44;;;;;;;22.03;5.10;;;22.00;99.50;;;;;;5291399;27;20225;-66
2024/05/01 09:52:11;;;;;;;22.73;5.67;;;22.00;99.30;;;;;;5314503;26;20224;-65
2024/05/01 09:54:39;;;;;;;18.07;4.80;;;22.00;99.10;;;;;;5325953;26;20216;-65
2024/05/01 09:57:06;;;;;;;29.93;5.67;;;22.00;98.90;;;;;;5324858;26;20404;-64
2024/05/01 09:59:33;;;;;;;26.23;4.90;;;22.00;99.00;;;;;;5325081;27;20216;-67
2024/05/01 10:02:02;;;;;;;23.43;5.13;;;22.00;99.20;;;;;;5324685;26;20276;-65
2024/05/01 10:04:30;;;;;;;20.57;5.20;;;22.10;99.30;;;;;;5324985;27;20220;-64
2024/05/01 10:06:57;;;;;;;21.40;5.50;;;22.10;99.30;;;;;;5325745;26;20319;-65
2024/05/01 10:09:27;;;;;;;18.17;5.23;;;22.10;99.10;;;;;;5325598;26;20556;-66
2024/05/01 10:12:06;;;;;;;24.20;5.03;;;22.10;99.10;;;;;;5325551;26;20220;-67
2024/05/01 10:14:39;;;;;;;22.43;4.97;;;22.00;99.00;;;;;;5325587;26;20319;-66
2024/05/01 10:17:11;;;;;;;22.50;5.07;;;22.10;97.40;;;;;;5325609;26;20259;-65
2024/05/01 10:20:01;;;;;;;21.10;5.13;;;22.10;97.50;;;;;;5332342;26;20224;-65
2024/05/01 10:22:28;;;;;;;17.33;5.47;;;22.10;96.30;;;;;;5319566;26;20479;-65
2024/05/01 10:25:02;;;;;;;30.50;5.77;;;22.20;96.10;;;;;;5325527;26;20284;-65
2024/05/01 10:27:32;;;;;;;27.63;5.63;;;22.30;96.20;;;;;;5325296;26;20496;-66
2024/05/01 10:30:06;;;;;;;19.60;5.33;;;22.40;96.70;;;;;;5324476;27;20212;-64
2024/05/01 10:32:33;;;;;;;25.17;5.67;;;22.40;96.80;;;;;;5325476;26;20224;-65
2024/05/01 10:35:01;;;;;;;21.03;4.37;;;22.50;97.00;;;;;;5324488;27;20212;-66
2024/05/01 10:37:30;;;;;;;15.10;4.73;;;22.50;96.20;;;;;;5325448;26;20234;-66
2024/05/01 10:39:57;;;;;;;19.93;4.27;;;22.50;95.90;;;;;;5325376;26;20281;-66
2024/05/01 10:42:24;;;;;;;17.33;4.97;;;22.50;95.80;;;;;;5325065;26;20216;-66
2024/05/01 10:45:03;;;;;;;15.37;4.30;;;22.60;96.40;;;;;;5324382;27;20483;-64
2024/05/01 10:47:30;;;;;;;15.87;5.07;;;22.60;96.80;;;;;;5325509;26;20212;-66
2024/05/01 10:49:58;;;;;;;27.13;5.13;;;22.50;96.70;;;;;;5325310;26;20466;-64
2024/05/01 10:52:24;;;;;;;20.67;5.33;;;22.50;96.80;;;;;;5325023;26;20561;-64
2024/05/01 10:54:51;;;;;;;14.93;4.93;;;22.50;96.50;;;;;;5325162;26;20458;-65
2024/05/01 10:57:20;;;;;;;14.40;3.87;;;22.50;96.70;;;;;;5324900;26;20258;-63
2024/05/01 10:59:59;;;;;;;18.73;4.20;;;22.50;96.00;;;;;;5325098;26;20220;-64
2024/05/01 11:02:27;;;;;;;20.97;4.60;;;22.60;95.10;;;;;;5324100;26;20367;-64
2024/05/01 11:04:54;;;;;;;18.53;4.50;;;22.80;95.10;;;;;;5324905;26;20291;-65
2024/05/01 11:07:21;;;;;;;16.93;4.17;;;22.80;95.40;;;;;;5324812;26;20280;-66
2024/05/01 11:10:02;;;;;;;9.53;3.17;;;22.90;95.90;;;;;;5324281;27;20255;-66
2024/05/01 11:12:29;;;;;;;14.03;3.93;;;22.80;95.80;;;;;;5324881;26;20421;-66
2024/05/01 11:15:03;;;;;;;14.60;3.43;;;22.90;94.70;;;;;;5324191;27;20216;-64
2024/05/01 11:17:32;;;;;;;10.83;3.20;;;22.90;93.90;;;;;;5324922;26;20237;-66
2024/05/01 11:19:59;;;;;;;15.70;3.53;;;22.90;94.10;;;;;;5324785;26;20294;-65
2024/05/01 11:22:26;;;;;;;10.53;3.60;;;23.00;93.50;;;;;;5324636;26;20264;-64
2024/05/01 11:24:53;;;;;;;14.83;3.60;;;23.10;93.80;;;;;;5324718;26;20216;-65
2024/05/01 11:27:20;;;;;;;12.70;3.33;;;23.10;92.40;;;;;;5324466;26;20220;-65
2024/05/01 11:29:47;;;;;;;11.33;3.20;;;23.20;91.70;;;;;;5324636;26;20254;-64
2024/05/01 11:32:14;;;;;;;9.87;2.80;;;23.30;92.00;;;;;;5323949;26;20208;-64
2024/05/01 11:34:41;;;;;;;12.00;3.23;;;23.30;92.10;;;;;;5323872;27;20213;-65
2024/05/01 11:37:08;;;;;;;11.97;3.07;;;23.30;92.30;;;;;;5324630;26;20283;-64
2024/05/01 11:39:35;;;;;;;11.90;3.70;;;23.30;92.70;;;;;;5323681;26;20470;-64
2024/05/01 11:42:02;;;;;;;12.63;3.20;;;23.40;92.80;;;;;;5317949;26;20221;-66
2024/05/01 11:44:29;;;;;;;8.60;2.73;;;23.20;93.10;;;;;;5261349;27;20355;-65
2024/05/01 11:46:56;;;;;;;13.00;3.40;;;23.20;91.60;;;;;;5310298;26;20227;-65
2024/05/01 11:49:23;;;;;;;8.33;2.73;;;23.20;91.20;;;;;;5323969;26;20220;-65
2024/05/01 11:51:50;;;;;;;13.93;3.07;;;23.20;91.50;;;;;;5323819;26;20516;-65
2024/05/01 11:54:17;;;;;;;11.60;2.60;;;23.30;91.70;;;;;;5324067;26;20395;-64
2024/05/01 11:56:46;;;;;;;7.77;2.50;;;23.30;90.80;;;;;;5324458;26;20216;-65
2024/05/01 11:59:13;;;;;;;7.07;3.00;;;23.30;90.40;;;;;;5323115;27;20301;-64
2024/05/01 12:01:40;;;;;;;8.17;3.07;;;23.30;90.70;;;;;;5324338;26;20507;-64
2024/05/01 12:04:07;;;;;;;8.63;3.30;;;23.40;90.80;;;;;;5322992;27;20506;-64
2024/05/01 12:06:35;;;;;;;7.67;2.20;;;23.40;91.10;;;;;;5324420;26;20252;-65
2024/05/01 12:09:03;;;;;;;10.23;3.40;;;23.40;90.20;;;;;;5324071;26;20288;-64
2024/05/01 12:11:30;;;;;;;6.33;2.43;;;23.50;90.10;;;;;;5323830;26;20258;-65
2024/05/01 12:13:57;;;;;;;12.33;2.20;;;23.60;89.10;;;;;;5323422;26;20217;-65
2024/05/01 12:16:25;;;;;;;5.53;2.00;;;23.70;90.00;;;;;;5323993;26;20259;-65
2024/05/01 12:19:22;;;;;;;10.27;2.30;;;23.70;87.30;;;;;;5324019;26;20271;-66
2024/05/01 12:21:50;;;;;;;5.10;2.53;;;23.80;87.40;;;;;;5329104;26;20221;-66
2024/05/01 12:24:17;;;;;;;4.73;2.57;;;23.90;88.90;;;;;;5323531;26;20291;-64
2024/05/01 12:26:44;;;;;;;9.90;3.10;;;23.90;89.00;;;;;;5323035;26;20260;-65
2024/05/01 12:29:25;;;;;;;5.87;2.47;;;24.00;89.30;;;;;;5323515;26;20215;-65
2024/05/01 12:31:52;;;;;;;6.57;2.30;;;23.90;90.10;;;;;;5324024;26;20232;-65
2024/05/01 12:34:40;;;;;;;4.77;2.40;;;23.90;90.50;;;;;;5322610;27;20213;-64
2024/05/01 12:37:33;;;;;;;7.47;2.70;;;23.90;89.60;;;;;;5322773;26;20228;-65
2024/05/01 12:40:00;;;;;;;6.90;2.30;;;23.90;90.40;;;;;;5324572;26;20258;-65
2024/05/01 12:42:28;;;;;;;4.50;2.27;;;23.90;90.20;;;;;;5323390;26;20325;-64
2024/05/01 12:44:55;;;;;;;7.97;2.30;;;23.80;90.00;;;;;;5323455;26;20212;-65